地図

経路データ

SID SEASON NUMBER BASIN SUBBASIN NAME ISO_TIME NATURE LAT LON WMO_WIND WMO_PRES WMO_AGENCY TRACK_TYPE DIST2LAND LANDFALL IFLAG USA_AGENCY USA_ATCF_ID USA_LAT USA_LON USA_RECORD USA_STATUS USA_WIND USA_PRES USA_SSHS USA_R34_NE USA_R34_SE USA_R34_SW USA_R34_NW USA_R50_NE USA_R50_SE USA_R50_SW USA_R50_NW USA_R64_NE USA_R64_SE USA_R64_SW USA_R64_NW USA_POCI USA_ROCI USA_RMW USA_EYE TOKYO_LAT TOKYO_LON TOKYO_GRADE TOKYO_WIND TOKYO_PRES TOKYO_R50_DIR TOKYO_R50_LONG TOKYO_R50_SHORT TOKYO_R30_DIR TOKYO_R30_LONG TOKYO_R30_SHORT TOKYO_LAND CMA_LAT CMA_LON CMA_CAT CMA_WIND CMA_PRES HKO_LAT HKO_LON HKO_CAT HKO_WIND HKO_PRES NEWDELHI_LAT NEWDELHI_LON NEWDELHI_GRADE NEWDELHI_WIND NEWDELHI_PRES NEWDELHI_CI NEWDELHI_DP NEWDELHI_POCI REUNION_LAT REUNION_LON REUNION_TYPE REUNION_WIND REUNION_PRES REUNION_TNUM REUNION_CI REUNION_RMW REUNION_R34_NE REUNION_R34_SE REUNION_R34_SW REUNION_R34_NW REUNION_R50_NE REUNION_R50_SE REUNION_R50_SW REUNION_R50_NW REUNION_R64_NE REUNION_R64_SE REUNION_R64_SW REUNION_R64_NW BOM_LAT BOM_LON BOM_TYPE BOM_WIND BOM_PRES BOM_TNUM BOM_CI BOM_RMW BOM_R34_NE BOM_R34_SE BOM_R34_SW BOM_R34_NW BOM_R50_NE BOM_R50_SE BOM_R50_SW BOM_R50_NW BOM_R64_NE BOM_R64_SE BOM_R64_SW BOM_R64_NW BOM_ROCI BOM_POCI BOM_EYE BOM_POS_METHOD BOM_PRES_METHOD NADI_LAT NADI_LON NADI_CAT NADI_WIND NADI_PRES WELLINGTON_LAT WELLINGTON_LON WELLINGTON_WIND WELLINGTON_PRES DS824_LAT DS824_LON DS824_STAGE DS824_WIND DS824_PRES TD9636_LAT TD9636_LON TD9636_STAGE TD9636_WIND TD9636_PRES TD9635_LAT TD9635_LON TD9635_WIND TD9635_PRES TD9635_ROCI NEUMANN_LAT NEUMANN_LON NEUMANN_CLASS NEUMANN_WIND NEUMANN_PRES MLC_LAT MLC_LON MLC_CLASS MLC_WIND MLC_PRES USA_GUST BOM_GUST BOM_GUST_PER REUNION_GUST REUNION_GUST_PER USA_SEAHGT USA_SEARAD_NE USA_SEARAD_SE USA_SEARAD_SW USA_SEARAD_NW STORM_SPEED STORM_DIR
1914364S19143 1915 44 SP EA NOT_NAMED 1914-12-29 23:00:00 NR -19.2000 142.600 main 0 0 __________O___ -1 -19.2000 142.600 7 2 0
1914364S19143 1915 44 SP EA NOT_NAMED 1914-12-30 00:00:00 NR -19.2206 142.619 main 0 0 __________P___ -1 -19.2206 142.619 7 1 140
1914364S19143 1915 44 SP EA NOT_NAMED 1914-12-30 03:00:00 NR -19.2737 142.669 main 0 0 __________P___ -1 -19.2737 142.669 7 1 136
1914364S19143 1915 44 SP EA NOT_NAMED 1914-12-30 06:00:00 NR -19.2957 142.690 main 0 0 __________P___ -1 -19.2957 142.690 7 0 0
1914364S19143 1915 44 SP EA NOT_NAMED 1914-12-30 09:00:00 NR -19.2634 142.660 main 0 0 __________P___ -1 -19.2634 142.660 7 2 317
1914364S19143 1915 44 SP EA NOT_NAMED 1914-12-30 11:00:00 NR -19.2000 142.600 main 0 0 __________O___ -1 -19.2000 142.600 7 3 318
1914364S19143 1915 44 SP EA NOT_NAMED 1914-12-30 12:00:00 NR -19.1541 142.557 main 0 0 __________P___ -1 -19.1541 142.557 7 4 318
1914364S19143 1915 44 SP EA NOT_NAMED 1914-12-30 15:00:00 NR -18.9972 142.410 main 0 0 __________P___ -1 -18.9972 142.410 7 3 319
1914364S19143 1915 44 SP EA NOT_NAMED 1914-12-30 18:00:00 NR -18.9025 142.321 main 0 0 __________P___ -1 -18.9025 142.321 7 0 0
1914364S19143 1915 44 SP EA NOT_NAMED 1914-12-30 21:00:00 NR -18.9868 142.400 main 0 0 __________P___ -1 -18.9868 142.400 7 5 138
1914364S19143 1915 44 SP EA NOT_NAMED 1914-12-30 23:00:00 NR -19.2000 142.600 main 0 0 __________O___ -1 -19.2000 142.600 7 11 138
1914364S19143 1915 44 SP EA NOT_NAMED 1914-12-31 00:00:00 NR -19.3841 142.780 main 0 0 __________P___ -1 -19.3841 142.780 7 19 137
1914364S19143 1915 44 SP EA NOT_NAMED 1914-12-31 03:00:00 NR -20.1395 143.521 main 0 0 __________P___ -1 -20.1395 143.521 7 24 137
1914364S19143 1915 44 SP EA NOT_NAMED 1914-12-31 06:00:00 NR -21.1104 144.472 main 0 0 __________P___ -1 -21.1104 144.472 7 28 138
1914364S19143 1915 44 SP EA NOT_NAMED 1914-12-31 09:00:00 NR -22.1831 145.514 main 0 0 __________P___ -1 -22.1831 145.514 7 29 138
1914364S19143 1915 44 SP EA NOT_NAMED 1914-12-31 11:00:00 NR -22.9000 146.200 main 0 0 __________O___ -1 -22.9000 146.200 7 28 139
1914364S19143 1915 44 SP EA NOT_NAMED 1914-12-31 12:00:00 NR -23.2339 146.505 main 0 0 __________P___ -1 -23.2339 146.505 7 26 140
1914364S19143 1915 44 SP EA NOT_NAMED 1914-12-31 15:00:00 NR -24.2507 147.416 main 0 0 __________P___ -1 -24.2507 147.416 7 26 141
1914364S19143 1915 44 SP EA NOT_NAMED 1914-12-31 18:00:00 NR -25.2455 148.296 main 0 0 __________P___ -1 -25.2455 148.296 7 25 141
1914364S19143 1915 44 SP EA NOT_NAMED 1914-12-31 21:00:00 NR -26.1613 149.111 main 0 0 __________P___ -1 -26.1613 149.111 7 22 141
1914364S19143 1915 44 SP EA NOT_NAMED 1914-12-31 23:00:00 NR -26.7000 149.600 main 0 0 __________O___ -1 -26.7000 149.600 7 20 141
1914364S19143 1915 44 SP EA NOT_NAMED 1915-01-01 00:00:00 NR -26.9306 149.818 main 0 0 __________P___ -1 -26.9306 149.818 7 16 140
1914364S19143 1915 44 SP EA NOT_NAMED 1915-01-01 03:00:00 NR -27.5302 150.395 main 0 0 __________P___ -1 -27.5302 150.395 7 15 139
1914364S19143 1915 44 SP EA NOT_NAMED 1915-01-01 06:00:00 NR -28.0332 150.896 main 0 0 __________P___ -1 -28.0332 150.896 7 13 138
1914364S19143 1915 44 SP EA NOT_NAMED 1915-01-01 09:00:00 NR -28.4925 151.371 main 0 0 __________P___ -1 -28.4925 151.371 7 13 137
1914364S19143 1915 44 SP EA NOT_NAMED 1915-01-01 11:00:00 NR -28.8000 151.700 main 0 0 __________O___ -1 -28.8000 151.700 7 13 137
1914364S19143 1915 44 SP EA NOT_NAMED 1915-01-01 12:00:00 NR -28.9595 151.873 main 0 0 __________P___ -1 -28.9595 151.873 7 14 136
1914364S19143 1915 44 SP EA NOT_NAMED 1915-01-01 15:00:00 NR -29.4617 152.431 main 0 0 __________P___ -1 -29.4617 152.431 7 14 136
1914364S19143 1915 44 SP EA NOT_NAMED 1915-01-01 18:00:00 NR -29.9905 153.033 main 0 0 __________P___ -1 -29.9905 153.033 7 15 135
1914364S19143 1915 44 SP EA NOT_NAMED 1915-01-01 21:00:00 NR -30.5345 153.667 main 61 61 __________P___ -1 -30.5345 153.667 7 16 135
1914364S19143 1915 44 SP EA NOT_NAMED 1915-01-01 23:00:00 NR -30.9000 154.100 main 97 __________O___ -1 -30.9000 154.100 7 16 135

デジタル台風データ・検索

IBTrACS Databaseについて

本データベースは、米国NOAAが公開する1842年以降の世界の熱帯低気圧のベストトラックデータアーカイブInternational Best Track Archive for Climate Stewardship (IBTrACS)を、ウェブで閲覧しやすい形式に変換したものです。

最終更新日:2021-12-03